createdAt,value
2019-03-16T00:01:02.292Z,70.61
2019-03-16T00:03:09.393Z,69.92
2019-03-16T00:05:16.396Z,69.71
2019-03-16T00:07:32.859Z,69.54
2019-03-16T00:09:33.428Z,69.44
2019-03-16T00:11:40.850Z,69.47
2019-03-16T00:13:48.060Z,70.13
2019-03-16T00:15:55.482Z,70.64
2019-03-16T00:18:02.525Z,71.06
2019-03-16T00:20:12.416Z,71.09
2019-03-16T00:22:20.021Z,71.64
2019-03-16T00:24:27.140Z,72.02
2019-03-16T00:26:34.315Z,72.28
2019-03-16T00:28:41.902Z,72.34
2019-03-16T00:30:50.220Z,72.81
2019-03-16T00:32:58.892Z,73.17
2019-03-16T00:35:07.340Z,73.35
2019-03-16T00:37:14.832Z,73.02
2019-03-16T00:39:22.532Z,72.32
2019-03-16T00:41:30.409Z,72.45
2019-03-16T00:43:37.413Z,72.42
2019-03-16T00:45:44.389Z,72.72
2019-03-16T00:47:51.598Z,72.94
2019-03-16T00:49:58.820Z,72.48
2019-03-16T00:52:06.445Z,71.87
2019-03-16T00:54:14.198Z,72.37
2019-03-16T00:56:21.227Z,71.74
2019-03-16T00:58:29.511Z,71.60
2019-03-16T01:00:36.684Z,71.52
2019-03-16T01:02:44.971Z,71.56
2019-03-16T01:04:52.177Z,71.59
2019-03-16T01:06:59.174Z,71.08
2019-03-16T01:09:08.357Z,71.09
2019-03-16T01:11:15.349Z,71.09
2019-03-16T01:13:22.962Z,70.70
2019-03-16T01:15:30.136Z,70.79
2019-03-16T01:17:37.034Z,69.94
2019-03-16T01:19:44.565Z,69.55
2019-03-16T01:22:12.377Z,68.88
2019-03-16T01:24:19.324Z,68.32
2019-03-16T01:26:26.352Z,68.52
2019-03-16T01:28:33.330Z,68.37
2019-03-16T01:30:40.633Z,67.60
2019-03-16T01:32:47.760Z,68.09
2019-03-16T01:34:54.941Z,67.68
2019-03-16T01:37:02.021Z,68.18
2019-03-16T01:39:09.728Z,67.81
2019-03-16T01:41:16.804Z,67.69
2019-03-16T01:43:24.004Z,67.81
2019-03-16T01:45:31.286Z,68.06
2019-03-16T01:47:38.826Z,68.63
2019-03-16T01:49:45.957Z,68.54
2019-03-16T01:51:53.462Z,69.16
2019-03-16T01:54:00.493Z,69.52
2019-03-16T01:56:07.779Z,70.07
2019-03-16T01:58:15.419Z,71.05
2019-03-16T02:00:22.651Z,71.71
2019-03-16T02:02:30.151Z,72.40
2019-03-16T02:04:37.636Z,73.14
2019-03-16T02:06:44.992Z,74.56
2019-03-16T02:08:52.611Z,75.89
2019-03-16T02:11:01.313Z,76.91
2019-03-16T02:13:09.740Z,77.62
2019-03-16T02:15:17.458Z,78.13
2019-03-16T02:17:26.154Z,78.16
2019-03-16T02:19:35.791Z,78.98
2019-03-16T02:21:42.279Z,79.89
2019-03-16T02:23:49.449Z,80.44
2019-03-16T02:25:57.443Z,80.93
2019-03-16T02:28:05.101Z,81.01
2019-03-16T02:30:13.561Z,81.27
2019-03-16T02:32:20.564Z,81.55
2019-03-16T02:34:28.291Z,81.87
2019-03-16T02:36:36.015Z,82.97
2019-03-16T02:38:43.301Z,83.59
2019-03-16T02:40:50.263Z,83.88
2019-03-16T02:42:58.249Z,84.20
2019-03-16T02:45:07.405Z,84.41
2019-03-16T02:47:15.201Z,84.19
2019-03-16T02:49:22.335Z,84.92
2019-03-16T02:51:29.976Z,85.15
2019-03-16T02:53:38.002Z,85.50
2019-03-16T02:55:45.262Z,85.40
2019-03-16T02:57:52.571Z,84.74
2019-03-16T03:00:00.459Z,85.18
2019-03-16T03:02:08.295Z,84.55
2019-03-16T03:04:15.439Z,84.81
2019-03-16T03:06:22.371Z,84.92
2019-03-16T03:08:29.773Z,84.74
2019-03-16T03:10:37.124Z,84.97
2019-03-16T03:12:44.427Z,84.78
2019-03-16T03:14:51.578Z,84.14
2019-03-16T03:16:58.605Z,84.31
2019-03-16T03:19:05.783Z,84.53
2019-03-16T03:21:12.884Z,84.49
2019-03-16T03:23:19.928Z,84.38
2019-03-16T03:25:26.820Z,84.56
2019-03-16T03:27:33.707Z,84.59
2019-03-16T03:29:40.652Z,84.70
2019-03-16T03:31:47.490Z,84.33
2019-03-16T03:34:00.863Z,84.57
2019-03-16T03:36:03.782Z,84.56
2019-03-16T03:38:10.829Z,84.27
2019-03-16T03:40:19.356Z,84.34
2019-03-16T03:42:26.303Z,84.37
2019-03-16T03:44:33.442Z,84.57
2019-03-16T03:46:40.549Z,84.12
2019-03-16T03:48:48.178Z,84.09
2019-03-16T03:50:55.392Z,83.97
2019-03-16T03:53:02.788Z,84.03
2019-03-16T03:55:12.406Z,84.03
2019-03-16T03:57:19.839Z,83.96
2019-03-16T03:59:27.397Z,84.13
2019-03-16T04:01:34.512Z,83.99
2019-03-16T04:04:15.127Z,84.11
2019-03-16T04:06:12.359Z,83.92
2019-03-16T04:08:19.534Z,83.44
2019-03-16T04:10:27.208Z,83.20
2019-03-16T04:12:36.380Z,83.35
2019-03-16T04:14:45.154Z,83.11
2019-03-16T04:16:52.289Z,82.70
2019-03-16T04:18:59.360Z,82.61
2019-03-16T04:21:07.763Z,82.80
2019-03-16T04:23:14.924Z,82.92
2019-03-16T04:25:22.420Z,82.36
2019-03-16T04:27:30.262Z,82.02
2019-03-16T04:29:37.372Z,81.95
2019-03-16T04:31:44.931Z,82.21
2019-03-16T04:33:52.658Z,82.14
2019-03-16T04:36:00.384Z,82.10
2019-03-16T04:38:08.269Z,81.89
2019-03-16T04:40:15.999Z,82.11
2019-03-16T04:42:26.331Z,82.12
2019-03-16T04:44:33.527Z,82.19
2019-03-16T04:46:41.028Z,81.96
2019-03-16T04:48:48.553Z,82.10
2019-03-16T04:50:55.997Z,82.48
2019-03-16T04:53:03.534Z,82.32
2019-03-16T04:55:12.177Z,82.07
2019-03-16T04:57:20.874Z,82.01
2019-03-16T04:59:28.258Z,82.16
2019-03-16T05:01:35.566Z,82.29
2019-03-16T05:03:43.122Z,82.09
2019-03-16T05:05:50.924Z,82.42
2019-03-16T05:07:58.504Z,82.27
2019-03-16T05:10:10.543Z,82.21
2019-03-16T05:12:17.766Z,81.86
2019-03-16T05:14:25.244Z,82.11
2019-03-16T05:16:32.636Z,82.30
2019-03-16T05:18:39.802Z,82.04
2019-03-16T05:20:46.771Z,81.96
2019-03-16T05:22:54.385Z,82.10
2019-03-16T05:25:01.556Z,82.11
2019-03-16T05:27:09.222Z,81.65
2019-03-16T05:29:16.383Z,81.58
2019-03-16T05:31:23.625Z,81.92
2019-03-16T05:33:30.456Z,82.37
2019-03-16T05:35:38.780Z,82.19
2019-03-16T05:37:46.367Z,82.29
2019-03-16T05:40:06.547Z,81.69
2019-03-16T05:42:13.315Z,82.08
2019-03-16T05:44:20.202Z,82.15
2019-03-16T05:46:27.051Z,82.01
2019-03-16T05:48:34.883Z,82.53
2019-03-16T05:50:42.248Z,82.41
2019-03-16T05:52:48.924Z,82.92
2019-03-16T05:54:55.899Z,82.76
2019-03-16T05:57:02.463Z,82.57
2019-03-16T05:59:09.178Z,82.79
2019-03-16T06:01:15.835Z,83.08
2019-03-16T06:03:22.555Z,83.58
2019-03-16T06:05:29.499Z,83.64
2019-03-16T06:07:36.207Z,84.18
2019-03-16T06:09:43.158Z,83.77
2019-03-16T06:11:49.821Z,83.27
2019-03-16T06:13:56.681Z,83.58
2019-03-16T06:16:03.700Z,83.55
2019-03-16T06:18:13.101Z,83.17
2019-03-16T06:20:19.067Z,83.49
2019-03-16T06:22:25.891Z,83.61
2019-03-16T06:24:33.347Z,83.70
2019-03-16T06:26:40.420Z,83.82
2019-03-16T06:28:47.050Z,83.98
2019-03-16T06:30:54.538Z,84.13
2019-03-16T06:33:01.384Z,83.87
2019-03-16T06:35:08.663Z,83.82
2019-03-16T06:37:15.344Z,83.78
2019-03-16T06:39:22.030Z,83.85
2019-03-16T06:41:28.917Z,83.89
2019-03-16T06:43:35.621Z,83.58
2019-03-16T06:45:42.413Z,83.97
2019-03-16T06:47:50.502Z,84.03
2019-03-16T06:49:57.422Z,84.43
2019-03-16T06:52:04.272Z,84.80
2019-03-16T06:54:11.074Z,85.23
2019-03-16T06:56:18.046Z,85.57
2019-03-16T06:58:24.915Z,86.27
2019-03-16T07:00:31.610Z,87.06
2019-03-16T07:02:38.441Z,86.28
2019-03-16T07:04:45.329Z,86.22
2019-03-16T07:06:53.312Z,86.33
2019-03-16T07:08:59.895Z,86.50
2019-03-16T07:11:06.673Z,86.82
2019-03-16T07:13:13.546Z,86.91
2019-03-16T07:15:20.339Z,87.05
2019-03-16T07:17:27.101Z,87.24
2019-03-16T07:19:34.129Z,87.10
2019-03-16T07:21:40.932Z,87.03
2019-03-16T07:23:47.652Z,87.38
2019-03-16T07:25:55.201Z,87.31
2019-03-16T07:28:01.809Z,87.09
2019-03-16T07:30:16.574Z,87.38
2019-03-16T07:32:23.367Z,87.35
2019-03-16T07:34:30.171Z,86.95
2019-03-16T07:36:36.970Z,86.12
2019-03-16T07:38:43.787Z,86.40
2019-03-16T07:40:50.397Z,86.28
2019-03-16T07:42:57.270Z,85.79
2019-03-16T07:45:08.500Z,85.60
2019-03-16T07:47:12.350Z,85.33
2019-03-16T07:49:19.126Z,85.40
2019-03-16T07:51:26.197Z,84.94
2019-03-16T07:53:32.964Z,85.33
2019-03-16T07:55:42.241Z,84.77
2019-03-16T07:57:49.316Z,83.85
2019-03-16T07:59:56.220Z,84.03
2019-03-16T08:02:03.060Z,83.57
2019-03-16T08:04:10.128Z,83.32
2019-03-16T08:06:16.906Z,83.07
2019-03-16T08:08:23.802Z,82.32
2019-03-16T08:10:30.486Z,82.31
2019-03-16T08:12:37.271Z,81.53
2019-03-16T08:14:44.083Z,81.01
2019-03-16T08:16:50.932Z,81.07
2019-03-16T08:18:58.726Z,80.35
2019-03-16T08:21:05.503Z,79.91
2019-03-16T08:23:12.178Z,78.30
2019-03-16T08:25:18.970Z,78.24
2019-03-16T08:27:25.853Z,76.64
2019-03-16T08:29:32.424Z,75.97
2019-03-16T08:31:39.363Z,75.09
2019-03-16T08:33:46.372Z,75.39
2019-03-16T08:35:53.079Z,74.63
2019-03-16T08:37:59.952Z,74.18
2019-03-16T08:40:10.383Z,73.66
2019-03-16T08:42:17.046Z,72.80
2019-03-16T08:44:23.829Z,74.26
2019-03-16T08:46:30.671Z,74.78
2019-03-16T08:48:38.552Z,75.13
2019-03-16T08:50:45.097Z,74.77
2019-03-16T08:52:53.950Z,75.34
2019-03-16T08:55:01.102Z,75.69
2019-03-16T08:57:09.876Z,75.95
2019-03-16T08:59:16.632Z,75.96
2019-03-16T09:01:23.458Z,75.88
2019-03-16T09:03:42.709Z,75.02
2019-03-16T09:05:39.215Z,75.29
2019-03-16T09:07:46.208Z,74.35
2019-03-16T09:09:53.045Z,75.00
2019-03-16T09:12:01.350Z,74.69
2019-03-16T09:14:08.154Z,74.00
2019-03-16T09:16:15.046Z,73.22
2019-03-16T09:18:21.929Z,72.03
2019-03-16T09:20:28.620Z,72.17
2019-03-16T09:22:35.414Z,71.80
2019-03-16T09:24:44.692Z,70.79
2019-03-16T09:26:51.908Z,70.42
2019-03-16T09:29:00.344Z,70.33
2019-03-16T09:31:07.507Z,69.86
2019-03-16T09:33:19.149Z,70.03
2019-03-16T09:35:26.905Z,70.07
2019-03-16T09:37:36.560Z,69.39
2019-03-16T09:39:49.814Z,69.01
2019-03-16T09:42:00.695Z,69.01
2019-03-16T09:44:11.852Z,68.65
2019-03-16T09:46:24.327Z,69.50
2019-03-16T09:48:31.875Z,68.63
2019-03-16T09:50:38.839Z,68.44
2019-03-16T09:52:52.795Z,67.76
2019-03-16T09:55:00.438Z,68.89
2019-03-16T09:57:07.608Z,69.42
2019-03-16T09:59:17.747Z,66.82
2019-03-16T10:01:29.574Z,67.37
2019-03-16T10:03:42.591Z,67.49
2019-03-16T10:05:55.217Z,66.53
2019-03-16T10:08:07.940Z,65.56
2019-03-16T10:10:19.583Z,67.02
2019-03-16T10:12:27.055Z,68.04
2019-03-16T10:14:37.031Z,68.67
2019-03-16T10:16:42.660Z,70.38
2019-03-16T10:18:49.628Z,70.43
2019-03-16T10:20:56.601Z,70.51
2019-03-16T10:23:03.375Z,70.64
2019-03-16T10:25:13.413Z,70.65
2019-03-16T10:27:28.965Z,69.76
2019-03-16T10:29:41.615Z,70.26
2019-03-16T10:31:55.034Z,69.18
2019-03-16T10:34:05.671Z,70.50
2019-03-16T10:36:18.970Z,71.55
2019-03-16T10:38:31.800Z,70.55
2019-03-16T10:40:45.665Z,71.22
2019-03-16T10:42:58.021Z,71.77
2019-03-16T10:45:11.621Z,74.04
2019-03-16T10:47:32.280Z,75.26
2019-03-16T10:49:50.978Z,76.44
2019-03-16T10:51:59.429Z,77.11
2019-03-16T10:54:06.911Z,79.47
2019-03-16T10:56:14.927Z,80.95
2019-03-16T10:58:22.727Z,83.45
2019-03-16T11:00:30.392Z,84.17
2019-03-16T11:02:38.043Z,84.10
2019-03-16T11:04:45.454Z,86.13
2019-03-16T11:06:53.201Z,86.62
2019-03-16T11:09:10.585Z,87.34
2019-03-16T11:11:33.705Z,83.39
2019-03-16T11:13:45.337Z,85.14
2019-03-16T11:15:57.920Z,85.77
2019-03-16T11:18:10.801Z,85.38
2019-03-16T11:20:22.736Z,82.98
2019-03-16T11:22:51.872Z,84.97
2019-03-16T11:25:07.366Z,81.49
2019-03-16T11:27:19.489Z,79.45
2019-03-16T11:29:30.591Z,79.31
2019-03-16T11:31:40.021Z,74.82
2019-03-16T11:33:48.631Z,76.73
2019-03-16T11:35:55.740Z,75.10
2019-03-16T11:38:03.159Z,75.56
2019-03-16T11:40:17.791Z,76.47
2019-03-16T11:42:26.290Z,77.65
2019-03-16T11:44:37.021Z,82.13
2019-03-16T11:46:50.787Z,82.16
2019-03-16T11:49:07.215Z,78.23
2019-03-16T11:51:20.893Z,78.62
2019-03-16T11:53:34.891Z,78.73
2019-03-16T11:55:42.804Z,79.92
2019-03-16T11:57:53.884Z,78.67
2019-03-16T12:00:00.911Z,78.14
2019-03-16T12:02:07.831Z,80.00
2019-03-16T12:04:14.729Z,77.92
2019-03-16T12:06:21.750Z,78.05
2019-03-16T12:08:28.663Z,79.63
2019-03-16T12:10:35.819Z,77.56
2019-03-16T12:12:42.905Z,76.69
2019-03-16T12:14:49.904Z,78.17
2019-03-16T12:16:56.903Z,75.99
2019-03-16T12:19:03.923Z,77.65
2019-03-16T12:21:10.944Z,78.12
2019-03-16T12:23:17.793Z,79.46
2019-03-16T12:25:24.682Z,76.93
2019-03-16T12:27:31.493Z,75.76
2019-03-16T12:29:38.276Z,75.55
2019-03-16T12:31:45.173Z,76.58
2019-03-16T12:33:52.179Z,73.47
2019-03-16T12:35:59.163Z,73.30
2019-03-16T12:38:06.009Z,73.84
2019-03-16T12:40:15.323Z,77.04
2019-03-16T12:42:22.311Z,75.45
2019-03-16T12:44:29.052Z,72.21
2019-03-16T12:46:35.950Z,67.02
2019-03-16T12:48:42.881Z,70.18
2019-03-16T12:50:50.246Z,66.54
2019-03-16T12:53:02.217Z,64.94
2019-03-16T12:55:17.483Z,64.37
2019-03-16T12:57:28.970Z,63.65
2019-03-16T12:59:46.934Z,63.37
2019-03-16T13:02:00.368Z,62.86
2019-03-16T13:04:10.601Z,63.05
2019-03-16T13:06:19.158Z,65.12
2019-03-16T13:08:26.625Z,63.73
2019-03-16T13:10:34.257Z,64.06
2019-03-16T13:12:42.913Z,64.01
2019-03-16T13:14:50.114Z,62.48
2019-03-16T13:16:57.145Z,62.31
2019-03-16T13:19:04.143Z,63.60
2019-03-16T13:21:11.058Z,63.25
2019-03-16T13:23:18.438Z,62.69
2019-03-16T13:25:25.819Z,61.42
2019-03-16T13:27:32.883Z,61.45
2019-03-16T13:29:40.581Z,62.47
2019-03-16T13:31:47.518Z,62.84
2019-03-16T13:33:54.849Z,62.83
2019-03-16T13:36:03.847Z,62.88
2019-03-16T13:38:13.314Z,62.58
2019-03-16T13:40:22.832Z,61.14
2019-03-16T13:42:29.893Z,59.84
2019-03-16T13:44:36.965Z,59.94
2019-03-16T13:46:51.029Z,59.16
2019-03-16T13:48:58.985Z,57.78
2019-03-16T13:51:09.074Z,57.74
2019-03-16T13:53:23.225Z,57.85
2019-03-16T13:55:36.771Z,56.85
2019-03-16T13:57:48.559Z,56.39
2019-03-16T14:00:11.227Z,55.68
2019-03-16T14:02:21.535Z,55.13
2019-03-16T14:04:32.443Z,54.95
2019-03-16T14:06:44.996Z,55.79
2019-03-16T14:09:02.728Z,56.25
2019-03-16T14:11:16.657Z,55.88
2019-03-16T14:13:29.889Z,54.83
2019-03-16T14:15:45.077Z,54.58
2019-03-16T14:17:58.676Z,53.67
2019-03-16T14:20:16.089Z,53.11
2019-03-16T14:22:27.648Z,54.22
2019-03-16T14:24:40.404Z,53.54
2019-03-16T14:27:03.878Z,53.73
2019-03-16T14:29:14.051Z,53.87
2019-03-16T14:31:22.148Z,52.91
2019-03-16T14:33:30.386Z,53.23
2019-03-16T14:35:38.839Z,51.51
2019-03-16T14:37:47.340Z,50.46
2019-03-16T14:39:55.307Z,50.59
2019-03-16T14:42:02.922Z,51.90
2019-03-16T14:44:10.472Z,50.04
2019-03-16T14:46:18.284Z,50.19
2019-03-16T14:48:25.512Z,50.27
2019-03-16T14:50:37.001Z,50.52
2019-03-16T14:52:48.134Z,48.74
2019-03-16T14:55:00.449Z,49.14
2019-03-16T14:57:13.650Z,48.51
2019-03-16T14:59:21.292Z,48.83
2019-03-16T15:01:30.787Z,49.05
2019-03-16T15:03:39.551Z,49.46
2019-03-16T15:05:50.604Z,49.85
2019-03-16T15:07:59.404Z,50.21
2019-03-16T15:10:15.415Z,50.45
2019-03-16T15:12:26.132Z,50.50
2019-03-16T15:14:34.615Z,51.21
2019-03-16T15:16:45.143Z,51.07
2019-03-16T15:18:56.284Z,51.68
2019-03-16T15:21:02.896Z,52.05
2019-03-16T15:23:10.170Z,52.95
2019-03-16T15:25:17.121Z,53.05
2019-03-16T15:27:24.271Z,53.65
2019-03-16T15:29:34.037Z,53.30
2019-03-16T15:31:42.849Z,53.45
2019-03-16T15:33:53.422Z,53.86
2019-03-16T15:36:03.340Z,53.75
2019-03-16T15:38:12.171Z,54.32
2019-03-16T15:40:21.735Z,54.28
2019-03-16T15:42:31.254Z,54.07
2019-03-16T15:44:38.662Z,54.40
2019-03-16T15:46:46.086Z,54.62
2019-03-16T15:48:54.598Z,54.94
2019-03-16T15:51:01.753Z,55.07
2019-03-16T15:53:10.256Z,55.59
2019-03-16T15:55:18.692Z,56.14
2019-03-16T15:57:25.933Z,56.64
2019-03-16T15:59:35.923Z,56.39
2019-03-16T16:01:43.376Z,56.43
2019-03-16T16:03:50.248Z,57.44
2019-03-16T16:05:57.114Z,57.47
2019-03-16T16:08:04.117Z,57.68
2019-03-16T16:10:16.406Z,57.50
2019-03-16T16:12:24.502Z,57.86
2019-03-16T16:14:31.453Z,58.36
2019-03-16T16:16:38.521Z,58.50
2019-03-16T16:18:45.369Z,58.68
2019-03-16T16:20:52.509Z,59.11
2019-03-16T16:23:03.450Z,58.99
2019-03-16T16:25:15.451Z,59.04
2019-03-16T16:27:24.708Z,59.32
2019-03-16T16:29:34.950Z,59.69
2019-03-16T16:31:45.625Z,60.10
2019-03-16T16:33:55.513Z,60.09
2019-03-16T16:36:03.732Z,60.11
2019-03-16T16:38:19.093Z,60.11
2019-03-16T16:40:32.767Z,60.64
2019-03-16T16:42:40.505Z,60.47
2019-03-16T16:44:48.141Z,60.94
2019-03-16T16:46:57.187Z,61.34
2019-03-16T16:49:04.190Z,61.91
2019-03-16T16:51:13.376Z,61.99
2019-03-16T16:53:21.345Z,62.56
2019-03-16T16:55:31.946Z,63.41
2019-03-16T16:57:44.350Z,63.15
2019-03-16T16:59:58.277Z,63.54
2019-03-16T17:02:09.047Z,63.88
2019-03-16T17:04:20.335Z,64.22
2019-03-16T17:06:30.946Z,64.01
2019-03-16T17:08:42.456Z,64.36
2019-03-16T17:10:52.136Z,64.39
2019-03-16T17:12:59.526Z,64.28
2019-03-16T17:15:09.801Z,64.50
2019-03-16T17:17:17.160Z,64.68
2019-03-16T17:19:24.147Z,65.29
2019-03-16T17:21:31.426Z,65.50
2019-03-16T17:23:40.806Z,65.76
2019-03-16T17:25:48.078Z,65.86
2019-03-16T17:27:56.502Z,66.13
2019-03-16T17:30:04.395Z,66.27
2019-03-16T17:32:11.789Z,66.51
2019-03-16T17:34:19.068Z,66.77
2019-03-16T17:36:26.721Z,66.64
2019-03-16T17:38:33.881Z,66.89
2019-03-16T17:40:41.084Z,67.16
2019-03-16T17:42:48.244Z,67.50
2019-03-16T17:44:55.596Z,68.21
2019-03-16T17:47:03.082Z,68.21
2019-03-16T17:49:10.631Z,68.33
2019-03-16T17:51:19.626Z,68.49
2019-03-16T17:53:28.729Z,68.79
2019-03-16T17:55:36.072Z,68.71
2019-03-16T17:57:45.418Z,68.87
2019-03-16T17:59:53.071Z,69.01
2019-03-16T18:01:59.987Z,69.03
2019-03-16T18:04:09.014Z,69.05
2019-03-16T18:06:16.284Z,69.19
2019-03-16T18:08:23.278Z,69.37
2019-03-16T18:10:30.556Z,69.58
2019-03-16T18:12:39.500Z,69.65
2019-03-16T18:14:46.622Z,69.77
2019-03-16T18:16:55.219Z,70.15
2019-03-16T18:19:03.184Z,70.13
2019-03-16T18:21:10.985Z,70.37
2019-03-16T18:23:18.111Z,70.54
2019-03-16T18:25:26.057Z,70.55
2019-03-16T18:27:36.221Z,70.60
2019-03-16T18:29:43.302Z,70.73
2019-03-16T18:31:52.735Z,70.79
2019-03-16T18:34:01.349Z,70.85
2019-03-16T18:36:11.649Z,71.13
2019-03-16T18:38:20.724Z,71.13
2019-03-16T18:40:29.174Z,71.15
2019-03-16T18:42:36.256Z,71.10
2019-03-16T18:44:44.814Z,71.21
2019-03-16T18:46:55.264Z,71.33
2019-03-16T18:49:04.075Z,71.30
2019-03-16T18:51:11.035Z,71.11
2019-03-16T18:53:20.633Z,71.26
2019-03-16T18:55:28.649Z,71.48
2019-03-16T18:57:35.593Z,71.40
2019-03-16T18:59:43.429Z,71.46
2019-03-16T19:01:51.570Z,71.53
2019-03-16T19:03:58.631Z,71.69
2019-03-16T19:06:05.721Z,71.56
2019-03-16T19:08:12.657Z,71.51
2019-03-16T19:10:19.855Z,71.42
2019-03-16T19:12:28.175Z,71.39
2019-03-16T19:14:35.172Z,71.29
2019-03-16T19:16:42.454Z,71.32
2019-03-16T19:18:49.916Z,71.26
2019-03-16T19:20:56.882Z,71.21
2019-03-16T19:23:04.174Z,71.25
2019-03-16T19:25:22.795Z,71.21
2019-03-16T19:27:30.416Z,71.25
2019-03-16T19:29:37.835Z,71.30
2019-03-16T19:31:44.858Z,70.85
2019-03-16T19:33:53.018Z,71.04
2019-03-16T19:36:01.915Z,70.89
2019-03-16T19:38:13.234Z,70.65
2019-03-16T19:40:24.429Z,70.59
2019-03-16T19:42:31.462Z,70.63
2019-03-16T19:44:38.860Z,70.28
2019-03-16T19:46:45.955Z,70.33
2019-03-16T19:48:52.955Z,70.25
2019-03-16T19:51:04.183Z,70.44
2019-03-16T19:53:12.313Z,70.32
2019-03-16T19:55:20.453Z,70.29
2019-03-16T19:57:30.093Z,70.08
2019-03-16T19:59:41.605Z,70.08
2019-03-16T20:01:51.349Z,70.09
2019-03-16T20:04:01.023Z,70.04
2019-03-16T20:06:11.574Z,69.98
2019-03-16T20:08:19.519Z,69.46
2019-03-16T20:10:27.529Z,69.16
2019-03-16T20:12:35.052Z,68.95
2019-03-16T20:14:42.646Z,68.96
2019-03-16T20:16:50.536Z,69.17
2019-03-16T20:19:06.783Z,69.36
2019-03-16T20:21:17.508Z,69.41
2019-03-16T20:23:27.210Z,69.59
2019-03-16T20:25:39.661Z,69.51
2019-03-16T20:27:55.719Z,70.13
2019-03-16T20:30:07.103Z,70.40
2019-03-16T20:32:16.281Z,70.11
2019-03-16T20:34:26.621Z,70.29
2019-03-16T20:36:36.523Z,70.68
2019-03-16T20:38:46.992Z,70.38
2019-03-16T20:40:55.440Z,70.63
2019-03-16T20:43:05.218Z,70.46
2019-03-16T20:45:14.907Z,70.35
2019-03-16T20:47:22.784Z,69.65
2019-03-16T20:49:29.804Z,69.83
2019-03-16T20:51:37.074Z,70.13
2019-03-16T20:53:44.881Z,70.33
2019-03-16T20:55:51.865Z,70.46
2019-03-16T20:57:59.016Z,70.42
2019-03-16T21:00:17.633Z,70.70
2019-03-16T21:02:24.701Z,70.78
2019-03-16T21:04:31.713Z,71.55
2019-03-16T21:06:38.668Z,71.62
2019-03-16T21:08:45.587Z,71.62
2019-03-16T21:10:52.507Z,71.60
2019-03-16T21:12:59.706Z,72.15
2019-03-16T21:15:16.443Z,72.62
2019-03-16T21:17:23.494Z,73.11
2019-03-16T21:19:30.456Z,73.27
2019-03-16T21:21:37.360Z,73.32
2019-03-16T21:23:47.321Z,73.50
2019-03-16T21:25:54.249Z,74.06
2019-03-16T21:28:01.251Z,74.39
2019-03-16T21:30:23.119Z,74.95
2019-03-16T21:32:31.517Z,75.30
2019-03-16T21:34:38.625Z,75.94
2019-03-16T21:36:45.623Z,76.46
2019-03-16T21:38:52.972Z,77.35
2019-03-16T21:40:59.898Z,77.70
2019-03-16T21:43:06.885Z,78.21
2019-03-16T21:45:15.357Z,78.48
2019-03-16T21:47:22.250Z,79.09
2019-03-16T21:49:29.255Z,79.63
2019-03-16T21:51:36.190Z,79.92
2019-03-16T21:53:43.232Z,80.33
2019-03-16T21:55:50.349Z,80.92
2019-03-16T21:57:57.379Z,81.27
2019-03-16T22:00:06.255Z,81.73
2019-03-16T22:02:13.276Z,82.17
2019-03-16T22:04:20.164Z,82.31
2019-03-16T22:06:27.181Z,82.96
2019-03-16T22:08:35.221Z,83.41
2019-03-16T22:10:42.028Z,83.39
2019-03-16T22:12:49.455Z,83.71
2019-03-16T22:14:56.304Z,83.92
2019-03-16T22:17:03.423Z,84.11
2019-03-16T22:19:10.233Z,84.38
2019-03-16T22:21:17.368Z,84.28
2019-03-16T22:23:24.204Z,84.51
2019-03-16T22:25:32.593Z,84.81
2019-03-16T22:27:40.597Z,85.12
2019-03-16T22:29:48.676Z,85.07
2019-03-16T22:31:55.341Z,85.22
2019-03-16T22:34:02.241Z,85.34
2019-03-16T22:36:09.110Z,85.32
2019-03-16T22:38:16.236Z,85.58
2019-03-16T22:40:23.202Z,86.03
2019-03-16T22:42:29.952Z,86.44
2019-03-16T22:44:36.733Z,86.49
2019-03-16T22:46:43.536Z,86.42
2019-03-16T22:48:50.429Z,86.62
2019-03-16T22:50:57.451Z,86.88
2019-03-16T22:53:04.135Z,86.72
2019-03-16T22:55:10.912Z,87.04
2019-03-16T22:57:17.625Z,86.97
2019-03-16T22:59:24.686Z,87.08
2019-03-16T23:01:32.236Z,87.20
2019-03-16T23:03:39.164Z,87.26
2019-03-16T23:05:46.975Z,87.59
2019-03-16T23:07:53.704Z,87.63
2019-03-16T23:10:01.594Z,87.57
2019-03-16T23:12:08.461Z,87.72
2019-03-16T23:14:15.901Z,87.69
2019-03-16T23:16:25.752Z,88.01
2019-03-16T23:18:38.215Z,88.13
2019-03-16T23:20:45.701Z,88.22
2019-03-16T23:22:52.959Z,88.20
2019-03-16T23:25:00.299Z,88.50
2019-03-16T23:27:07.831Z,88.67
2019-03-16T23:29:15.116Z,88.70
2019-03-16T23:31:22.323Z,88.89
2019-03-16T23:33:29.442Z,88.90
2019-03-16T23:35:36.553Z,89.22
2019-03-16T23:37:43.715Z,89.32
2019-03-16T23:39:50.779Z,89.47
2019-03-16T23:41:57.715Z,89.61
2019-03-16T23:44:04.393Z,89.83
2019-03-16T23:46:11.277Z,89.66
2019-03-16T23:48:18.064Z,89.77
2019-03-16T23:50:24.795Z,90.05
2019-03-16T23:52:31.813Z,90.13
2019-03-16T23:54:38.541Z,90.16
2019-03-16T23:56:45.214Z,90.25
2019-03-16T23:58:52.101Z,90.26
